Time;durP1;ratioP1;P1;durP2;ratioP2;P2;SDS_P1;SDS_P2;PMS_P1;PMS_P2;Temp;Humidity;BMP_temperature;BMP_pressure;BME280_temperature;BME280_humidity;BME280_pressure;Samples;Min_cycle;Max_cycle;Signal;HPM_P1;HPM_P2
2022/11/11 00:01:00;;;;;;;3.88;0.10;;;;;;;13.61;100.00;101522.50;5058864;28;20087;-61
2022/11/11 00:03:26;;;;;;;1.00;0.50;;;;;;;13.62;100.00;101518.81;5054210;28;20124;-59
2022/11/11 00:05:51;;;;;;;1.40;0.80;;;;;;;13.64;100.00;101522.13;5050326;28;20103;-61
2022/11/11 00:08:16;;;;;;;1.13;0.20;;;;;;;13.66;100.00;101532.63;5064067;28;20032;-63
2022/11/11 00:10:42;;;;;;;2.90;0.20;;;;;;;13.66;100.00;101520.13;5052963;28;20604;-58
2022/11/11 00:13:08;;;;;;;1.00;0.17;;;;;;;13.69;100.00;101530.41;5061837;28;20048;-60
2022/11/11 00:15:37;;;;;;;0.93;0.10;;;;;;;13.72;100.00;101538.00;5053505;28;20409;-62
2022/11/11 00:26:15;;;;;;;3.03;0.20;;;;;;;13.67;100.00;101543.06;5059275;28;20593;-56
2022/11/11 00:28:41;;;;;;;2.53;0.75;;;;;;;13.71;100.00;101544.38;5041837;28;20120;-60
2022/11/11 00:31:08;;;;;;;4.57;0.82;;;;;;;13.70;100.00;101536.53;5056606;28;20064;-61
2022/11/11 00:33:34;;;;;;;3.53;0.40;;;;;;;13.70;100.00;101548.03;5058868;28;20033;-62
2022/11/11 00:35:59;;;;;;;0.35;0.35;;;;;;;13.72;100.00;101539.88;5060007;28;20041;-62
2022/11/11 00:41:22;;;;;;;1.73;0.10;;;;;;;13.81;100.00;101551.22;5060436;28;20049;-63
2022/11/11 00:43:48;;;;;;;3.92;0.20;;;;;;;13.80;100.00;101544.25;5056178;28;20024;-61
2022/11/11 00:52:03;;;;;;;2.53;0.10;;;;;;;13.63;100.00;101528.50;4969989;28;20416;-61
2022/11/11 00:54:28;;;;;;;2.05;1.25;;;;;;;13.64;100.00;101526.66;5020924;28;20040;-62
2022/11/11 00:56:53;;;;;;;1.98;0.05;;;;;;;13.62;100.00;101528.66;5061227;28;20393;-60
2022/11/11 00:59:19;;;;;;;0.15;0.00;;;;;;;13.64;100.00;101535.47;5055934;28;20029;-59
2022/11/11 01:01:44;;;;;;;5.65;0.70;;;;;;;13.66;100.00;101536.09;5061722;28;20043;-58
2022/11/11 01:04:09;;;;;;;1.17;0.10;;;;;;;13.65;100.00;101531.78;5041621;28;20032;-60
2022/11/11 01:06:36;;;;;;;2.67;0.73;;;;;;;13.68;100.00;101531.44;5048012;28;20103;-59
2022/11/11 01:09:05;;;;;;;1.00;0.00;;;;;;;13.70;100.00;101541.88;5058500;28;20397;-59
2022/11/11 01:11:31;;;;;;;15.18;1.10;;;;;;;13.69;100.00;101541.06;5053120;28;20120;-58
2022/11/11 01:13:56;;;;;;;5.07;0.00;;;;;;;13.71;100.00;101549.69;5056808;28;20115;-61
2022/11/11 01:16:25;;;;;;;0.20;0.10;;;;;;;13.72;100.00;101546.00;5050932;28;20381;-63
2022/11/11 01:18:51;;;;;;;1.98;0.30;;;;;;;13.73;100.00;101552.16;5054708;28;20029;-58
2022/11/11 01:21:23;;;;;;;0.90;0.47;;;;;;;13.75;100.00;101548.31;5051550;28;20435;-62
2022/11/11 01:23:50;;;;;;;0.98;0.25;;;;;;;13.71;100.00;101540.88;5059383;28;20033;-63
2022/11/11 01:26:25;;;;;;;2.72;0.20;;;;;;;13.74;100.00;101544.00;5049760;28;20040;-61
2022/11/11 01:28:53;;;;;;;0.22;0.22;;;;;;;13.71;100.00;101541.72;5056683;28;20508;-61
2022/11/11 01:31:20;;;;;;;1.65;0.73;;;;;;;13.71;100.00;101549.69;5058377;28;20515;-60
2022/11/11 01:33:45;;;;;;;2.33;0.00;;;;;;;13.66;100.00;101562.75;5058217;28;20029;-63
2022/11/11 01:36:16;;;;;;;0.73;0.43;;;;;;;13.71;100.00;101559.53;5049489;28;20036;-59
2022/11/11 01:38:42;;;;;;;1.08;0.10;;;;;;;13.71;100.00;101557.69;5055780;28;20025;-59
2022/11/11 01:43:56;;;;;;;3.40;0.08;;;;;;;13.75;100.00;101545.63;5056660;28;20398;-61
2022/11/11 01:46:25;;;;;;;0.80;0.03;;;;;;;13.79;100.00;101550.63;5054523;28;20017;-62
2022/11/11 01:51:58;;;;;;;7.43;0.30;;;;;;;13.78;100.00;101554.28;5052049;28;20036;-62
2022/11/11 01:54:30;;;;;;;1.42;0.15;;;;;;;13.77;100.00;101553.47;5054391;28;20111;-62
2022/11/11 01:57:04;;;;;;;1.23;0.00;;;;;;;13.80;100.00;101562.91;5052801;28;20029;-62
2022/11/11 01:59:32;;;;;;;2.22;0.20;;;;;;;13.80;100.00;101558.41;5055189;28;20029;-63
2022/11/11 02:02:01;;;;;;;2.63;0.00;;;;;;;13.78;100.00;101554.28;5052020;28;20040;-61
2022/11/11 02:07:11;;;;;;;3.17;0.00;;;;;;;13.72;100.00;101555.84;5054736;28;20125;-62
2022/11/11 02:09:40;;;;;;;0.90;0.30;;;;;;;13.70;100.00;101552.53;5057423;28;20044;-63
2022/11/11 02:14:56;;;;;;;2.15;0.20;;;;;;;13.69;100.00;101549.06;5054781;28;20041;-62
2022/11/11 02:17:24;;;;;;;0.28;0.20;;;;;;;13.70;100.00;101558.69;5052694;28;20032;-63
2022/11/11 02:19:57;;;;;;;0.10;0.10;;;;;;;13.72;100.00;101548.69;5053366;28;20033;-62
2022/11/11 02:22:29;;;;;;;6.43;0.20;;;;;;;13.73;100.00;101561.00;5038246;28;20049;-63
2022/11/11 02:24:55;;;;;;;2.78;0.32;;;;;;;13.73;100.00;101561.00;5041513;28;20056;-64
2022/11/11 02:27:23;;;;;;;0.38;0.15;;;;;;;13.77;100.00;101547.31;5039524;28;20106;-64
2022/11/11 02:29:51;;;;;;;2.63;0.03;;;;;;;13.78;100.00;101551.63;5053039;28;20449;-62
2022/11/11 02:32:17;;;;;;;9.02;0.65;;;;;;;13.72;100.00;101554.00;5052319;28;20488;-63
2022/11/11 02:34:42;;;;;;;1.35;0.38;;;;;;;13.70;100.00;101542.69;5052982;28;20100;-63
2022/11/11 02:37:08;;;;;;;1.48;0.10;;;;;;;13.67;100.00;101548.41;5041537;28;20111;-65
2022/11/11 02:39:39;;;;;;;2.65;0.75;;;;;;;13.67;100.00;101548.41;5052954;28;20412;-60
2022/11/11 02:42:09;;;;;;;1.40;0.30;;;;;;;13.64;100.00;101543.44;5053815;28;20059;-64
2022/11/11 02:44:35;;;;;;;1.83;0.85;;;;;;;13.65;100.00;101537.09;5055985;28;20035;-65
2022/11/11 02:47:01;;;;;;;3.55;0.30;;;;;;;13.66;100.00;101546.78;5051856;28;20497;-61
2022/11/11 02:49:26;;;;;;;4.28;1.02;;;;;;;13.66;100.00;101541.44;5058181;28;20044;-64
2022/11/11 02:51:51;;;;;;;2.50;0.45;;;;;;;13.65;100.00;101534.44;5058342;28;20126;-62
2022/11/11 02:54:17;;;;;;;0.88;0.13;;;;;;;13.67;100.00;101537.75;5052830;28;20147;-58
2022/11/11 02:59:26;;;;;;;1.58;0.20;;;;;;;13.70;100.00;101531.22;5055658;28;20040;-61
2022/11/11 03:01:51;;;;;;;0.77;0.17;;;;;;;13.69;100.00;101535.72;5060273;28;20033;-63
2022/11/11 03:04:17;;;;;;;2.03;0.30;;;;;;;13.69;100.00;101541.06;5057092;28;20032;-61
2022/11/11 03:06:42;;;;;;;3.22;0.20;;;;;;;13.70;100.00;101526.72;5059517;28;20036;-60
2022/11/11 03:09:07;;;;;;;1.88;0.47;;;;;;;13.70;100.00;101534.72;5059312;28;20071;-57
2022/11/11 03:11:36;;;;;;;1.42;0.20;;;;;;;13.72;100.00;101538.00;5056924;28;20259;-60
2022/11/11 03:14:01;;;;;;;1.77;0.00;;;;;;;13.75;100.00;101539.47;5061630;28;20028;-59
2022/11/11 03:19:11;;;;;;;3.08;1.00;;;;;;;13.75;100.00;101534.16;5054220;28;20063;-61
2022/11/11 03:21:37;;;;;;;1.10;0.00;;;;;;;13.77;100.00;101539.31;5052589;28;20457;-61
2022/11/11 03:24:02;;;;;;;6.43;0.77;;;;;;;13.76;100.00;101533.16;5056441;28;20036;-60
2022/11/11 03:26:28;;;;;;;3.50;0.28;;;;;;;13.73;100.00;101538.84;5054312;28;20478;-60
2022/11/11 03:28:53;;;;;;;1.23;0.20;;;;;;;13.72;100.00;101540.69;5047872;28;20082;-61
2022/11/11 03:31:19;;;;;;;5.95;0.30;;;;;;;13.72;100.00;101540.69;5067781;28;20450;-62
2022/11/11 03:33:44;;;;;;;1.45;0.82;;;;;;;13.73;100.00;101553.00;5059192;28;20029;-62
2022/11/11 03:36:09;;;;;;;2.78;0.10;;;;;;;13.70;100.00;101545.38;5058201;28;20115;-60
2022/11/11 03:38:35;;;;;;;5.25;0.32;;;;;;;13.70;100.00;101555.22;5066875;28;20040;-60
2022/11/11 03:41:00;;;;;;;1.70;0.55;;;;;;;13.70;100.00;101547.22;5065705;28;20354;-61
2022/11/11 03:43:28;;;;;;;3.10;0.10;;;;;;;13.73;100.00;101552.16;5066837;28;20032;-58
2022/11/11 03:45:59;;;;;;;2.50;0.80;;;;;;;13.74;100.00;101546.66;5055134;28;20029;-63
2022/11/11 03:48:28;;;;;;;1.75;0.17;;;;;;;13.73;100.00;101554.81;5059293;28;20386;-61
2022/11/11 03:50:54;;;;;;;7.00;0.68;;;;;;;13.71;100.00;101544.38;5043565;28;20166;-61
2022/11/11 03:53:20;;;;;;;1.85;0.30;;;;;;;13.75;100.00;101539.47;5061588;28;20127;-60
2022/11/11 03:55:46;;;;;;;1.02;0.17;;;;;;;13.74;100.00;101540.50;5050286;28;20116;-62
2022/11/11 03:58:12;;;;;;;4.80;0.55;;;;;;;13.72;100.00;101546.00;5052699;28;20092;-58
2022/11/11 04:00:37;;;;;;;1.05;0.52;;;;;;;13.72;100.00;101538.00;5060113;28;20021;-60
2022/11/11 04:10:21;;;;;;;5.65;0.15;;;;;;;13.72;100.00;101543.34;5060142;28;20031;-58
2022/11/11 04:11:40;;;;;;;1.35;0.20;;;;;;;13.69;100.00;101535.72;5059756;28;20071;-62
2022/11/11 04:16:53;;;;;;;1.98;0.25;;;;;;;13.64;100.00;101535.47;5062057;28;20090;-61
2022/11/11 04:22:02;;;;;;;5.97;0.52;;;;;;;13.67;100.00;101532.41;5056267;28;20506;-63
2022/11/11 04:27:15;;;;;;;5.40;0.20;;;;;;;13.68;100.00;101528.75;5052109;28;20046;-61
2022/11/11 04:29:42;;;;;;;4.03;0.90;;;;;;;13.64;100.00;101532.78;5057150;28;20073;-59
2022/11/11 04:35:00;;;;;;;8.70;1.35;;;;;;;13.67;100.00;101537.75;5060996;28;20500;-63
2022/11/11 04:37:27;;;;;;;1.65;0.28;;;;;;;13.64;100.00;101531.97;5066411;28;20021;-61
2022/11/11 04:42:38;;;;;;;4.28;0.20;;;;;;;13.65;100.00;101536.28;5048464;28;20043;-62
2022/11/11 04:48:01;;;;;;;1.13;0.25;;;;;;;13.60;100.00;101523.50;5061887;28;20098;-60
2022/11/11 04:50:38;;;;;;;2.17;0.13;;;;;;;13.58;100.00;101528.22;5064221;28;20397;-61
2022/11/11 04:53:06;;;;;;;5.40;0.38;;;;;;;13.59;100.00;101521.88;5059784;28;20035;-61
2022/11/11 04:58:21;;;;;;;2.40;0.30;;;;;;;13.62;100.00;101534.00;5051247;28;20541;-60
2022/11/11 05:00:46;;;;;;;3.78;0.30;;;;;;;13.58;100.00;101525.56;5059433;28;20469;-62
2022/11/11 05:03:15;;;;;;;6.88;0.40;;;;;;;13.62;100.00;101524.16;5062269;28;20085;-57
2022/11/11 05:11:15;;;;;;;0.38;0.20;;;;;;;13.63;100.00;101533.81;5044948;28;20165;-61
2022/11/11 05:22:17;;;;;;;2.83;0.25;;;;;;;13.68;100.00;101531.44;5059810;28;20390;-62
2022/11/11 05:27:27;;;;;;;3.88;0.85;;;;;;;13.66;100.00;101533.44;5054950;28;20589;-62
2022/11/11 05:29:53;;;;;;;6.25;0.50;;;;;;;13.63;100.00;101528.50;5055300;28;20131;-62
2022/11/11 05:32:20;;;;;;;4.28;0.45;;;;;;;13.66;100.00;101536.09;5059265;28;20108;-63
2022/11/11 05:34:45;;;;;;;6.68;1.17;;;;;;;13.67;100.00;101543.06;5063012;28;20466;-61
2022/11/11 05:37:11;;;;;;;1.85;0.40;;;;;;;13.67;100.00;101535.09;5053423;28;20029;-61
2022/11/11 05:39:37;;;;;;;5.70;0.20;;;;;;;13.65;100.00;101539.75;5063670;28;20387;-62
2022/11/11 05:42:03;;;;;;;2.15;0.10;;;;;;;13.65;100.00;101547.75;5054289;28;20033;-62
2022/11/11 05:44:28;;;;;;;7.57;2.10;;;;;;;13.65;100.00;101546.94;5061208;28;20032;-60
2022/11/11 05:46:53;;;;;;;3.65;0.17;;;;;;;13.61;100.00;101554.50;5055176;28;20071;-63
2022/11/11 05:49:19;;;;;;;2.05;0.35;;;;;;;13.60;100.00;101560.00;5060168;28;20021;-64
2022/11/11 05:51:45;;;;;;;0.40;0.00;;;;;;;13.62;100.00;101566.78;5055311;28;20024;-63
2022/11/11 05:54:11;;;;;;;2.90;0.45;;;;;;;13.62;100.00;101564.13;5033062;28;20561;-64
2022/11/11 05:56:36;;;;;;;2.58;0.05;;;;;;;13.62;100.00;101560.63;5058459;28;20114;-59
2022/11/11 05:59:03;;;;;;;1.70;0.40;;;;;;;13.64;100.00;101554.13;5058114;28;20048;-63
2022/11/11 06:01:28;;;;;;;1.30;0.10;;;;;;;13.65;100.00;101560.25;5052929;28;20551;-63
2022/11/11 06:03:54;;;;;;;6.20;1.20;;;;;;;13.64;100.00;101556.78;5055320;28;20024;-63
2022/11/11 06:06:19;;;;;;;6.25;0.75;;;;;;;13.64;100.00;101554.13;5040421;28;20036;-63
2022/11/11 06:08:44;;;;;;;4.07;0.80;;;;;;;13.63;100.00;101563.13;5052522;28;20072;-63
2022/11/11 06:11:10;;;;;;;5.13;0.30;;;;;;;13.62;100.00;101563.31;5057643;28;20115;-63
2022/11/11 06:13:35;;;;;;;3.13;0.45;;;;;;;13.62;100.00;101566.78;5055742;28;20273;-63
2022/11/11 06:16:01;;;;;;;0.82;0.10;;;;;;;13.64;100.00;101566.63;5056228;28;20029;-63
2022/11/11 06:18:27;;;;;;;4.40;0.88;;;;;;;13.63;100.00;101570.28;5050705;28;20033;-63
2022/11/11 06:20:56;;;;;;;0.82;0.50;;;;;;;13.62;100.00;101571.31;5052278;28;20078;-64
2022/11/11 06:23:23;;;;;;;11.63;0.55;;;;;;;13.61;100.00;101570.47;5056385;28;20024;-63
2022/11/11 06:28:33;;;;;;;2.17;0.47;;;;;;;13.60;100.00;101578.66;5054750;28;20429;-63
2022/11/11 06:30:58;;;;;;;4.82;0.80;;;;;;;13.57;100.00;101584.34;5057779;28;20033;-63
2022/11/11 06:33:24;;;;;;;2.42;0.57;;;;;;;13.58;100.00;101586.84;5037629;28;20025;-64
2022/11/11 06:35:50;;;;;;;2.20;0.30;;;;;;;13.59;100.00;101582.31;5055621;28;20036;-61
2022/11/11 06:38:16;;;;;;;4.63;0.75;;;;;;;13.57;100.00;101595.81;5052065;28;20123;-63
2022/11/11 06:40:42;;;;;;;5.22;0.65;;;;;;;13.56;100.00;101604.84;5056366;28;20422;-63
2022/11/11 06:43:08;;;;;;;5.70;0.88;;;;;;;13.57;100.00;101600.34;5057782;28;20044;-63
2022/11/11 06:45:35;;;;;;;2.08;0.13;;;;;;;13.56;100.00;101594.19;5057082;28;20033;-63
2022/11/11 06:48:00;;;;;;;1.80;1.25;;;;;;;13.55;100.00;101602.34;5056089;28;20032;-62
2022/11/11 06:50:27;;;;;;;5.32;0.90;;;;;;;13.57;100.00;101597.66;5060169;28;20033;-63
2022/11/11 06:52:52;;;;;;;4.00;1.08;;;;;;;13.60;100.00;101583.97;5054284;28;20429;-63
2022/11/11 06:55:17;;;;;;;6.20;0.55;;;;;;;13.63;100.00;101595.09;5061046;28;20044;-60
2022/11/11 06:57:43;;;;;;;1.50;0.35;;;;;;;13.65;100.00;101602.91;5053784;28;20131;-63
2022/11/11 07:00:09;;;;;;;1.95;0.55;;;;;;;13.69;100.00;101599.69;5054646;28;20040;-62
2022/11/11 07:02:35;;;;;;;3.58;0.20;;;;;;;13.70;100.00;101600.50;5061228;28;20029;-62
2022/11/11 07:05:00;;;;;;;2.90;1.60;;;;;;;13.66;100.00;101600.06;5043298;28;20031;-62
2022/11/11 07:07:27;;;;;;;9.82;1.50;;;;;;;13.65;100.00;101608.22;5052258;28;20036;-63
2022/11/11 07:09:54;;;;;;;1.40;0.20;;;;;;;13.67;100.00;101614.22;5063173;28;20033;-61
2022/11/11 07:12:20;;;;;;;8.02;1.50;;;;;;;13.66;100.00;101618.72;5058558;28;20036;-62
2022/11/11 07:14:46;;;;;;;3.10;0.40;;;;;;;13.64;100.00;101623.41;5048359;28;20193;-59
2022/11/11 07:17:11;;;;;;;4.00;1.35;;;;;;;13.67;100.00;101616.88;5054331;28;20033;-60
2022/11/11 07:19:37;;;;;;;4.70;0.40;;;;;;;13.66;100.00;101621.38;5051755;28;20052;-61
2022/11/11 07:22:02;;;;;;;2.90;0.40;;;;;;;13.63;100.00;101629.75;5049727;28;20040;-63
2022/11/11 07:24:27;;;;;;;3.58;0.38;;;;;;;13.62;100.00;101633.41;5038331;28;20433;-62
2022/11/11 07:26:53;;;;;;;1.17;0.50;;;;;;;13.64;100.00;101641.22;5051662;28;20028;-62
2022/11/11 07:29:18;;;;;;;1.52;0.22;;;;;;;13.65;100.00;101638.38;5055164;28;20045;-64
2022/11/11 07:31:44;;;;;;;2.05;0.35;;;;;;;13.70;100.00;101643.16;5060220;28;20386;-63
2022/11/11 07:34:09;;;;;;;6.90;0.50;;;;;;;13.67;100.00;101638.19;5061756;28;20028;-61
2022/11/11 07:36:34;;;;;;;0.32;0.30;;;;;;;13.68;100.00;101646.03;5052196;28;20551;-63
2022/11/11 07:39:00;;;;;;;3.83;0.55;;;;;;;13.64;100.00;101636.72;5059326;28;20032;-63
2022/11/11 07:41:25;;;;;;;2.88;0.32;;;;;;;13.64;100.00;101650.06;5066912;28;20028;-62
2022/11/11 07:43:51;;;;;;;2.85;0.60;;;;;;;13.65;100.00;101641.03;5039259;28;20091;-63
2022/11/11 07:46:16;;;;;;;2.65;0.80;;;;;;;13.66;100.00;101650.69;5041569;28;20025;-61
2022/11/11 07:48:41;;;;;;;3.00;0.80;;;;;;;13.65;100.00;101649.03;5057650;28;20033;-64
2022/11/11 07:51:07;;;;;;;4.65;0.45;;;;;;;13.65;100.00;101658.88;5064764;28;20029;-64
2022/11/11 07:53:32;;;;;;;7.82;0.55;;;;;;;13.65;100.00;101658.88;5056598;28;20459;-61
2022/11/11 07:55:57;;;;;;;4.38;0.57;;;;;;;13.65;100.00;101670.34;5054616;28;20474;-63
2022/11/11 07:58:23;;;;;;;3.70;0.63;;;;;;;13.64;100.00;101666.03;5058392;28;20043;-61
2022/11/11 08:00:48;;;;;;;4.10;0.98;;;;;;;13.62;100.00;101667.22;5060335;28;20032;-62
2022/11/11 08:03:13;;;;;;;5.30;0.20;;;;;;;13.63;100.00;101679.53;5063043;28;20025;-64
2022/11/11 08:05:39;;;;;;;4.03;0.73;;;;;;;13.63;100.00;101668.88;5064415;28;20043;-64
2022/11/11 08:08:09;;;;;;;2.88;0.43;;;;;;;13.68;100.00;101675.34;5058759;28;20068;-64
2022/11/11 08:10:35;;;;;;;3.35;0.32;;;;;;;13.67;100.00;101671.00;5057402;28;20112;-63
2022/11/11 08:15:45;;;;;;;6.78;0.60;;;;;;;13.64;100.00;101683.88;5051222;28;20090;-63
2022/11/11 08:18:11;;;;;;;5.97;0.90;;;;;;;13.66;100.00;101684.53;5063627;28;20059;-63
2022/11/11 08:20:37;;;;;;;5.78;1.50;;;;;;;13.67;100.00;101691.50;5061382;28;20082;-61
2022/11/11 08:23:09;;;;;;;2.55;0.20;;;;;;;13.66;100.00;101688.00;5050454;28;20029;-61
2022/11/11 08:25:34;;;;;;;7.03;1.08;;;;;;;13.69;100.00;101687.66;5057343;28;20037;-62
2022/11/11 08:28:03;;;;;;;3.28;0.35;;;;;;;13.72;100.00;101700.59;5056167;28;20031;-61
2022/11/11 08:30:29;;;;;;;9.90;1.58;;;;;;;13.71;100.00;101696.28;5051980;28;20537;-62
2022/11/11 08:33:04;;;;;;;1.65;0.28;;;;;;;13.76;100.00;101703.75;5053723;28;20091;-62
2022/11/11 08:35:31;;;;;;;3.95;0.60;;;;;;;13.73;100.00;101704.94;5052388;28;20063;-62
2022/11/11 08:38:01;;;;;;;6.28;0.57;;;;;;;13.74;100.00;101709.25;5055498;28;20025;-64
2022/11/11 08:40:26;;;;;;;7.72;1.38;;;;;;;13.75;100.00;101720.72;5057845;28;20033;-63
2022/11/11 08:42:56;;;;;;;4.40;0.38;;;;;;;13.78;100.00;101714.22;5051855;28;20029;-63
2022/11/11 08:45:21;;;;;;;3.92;0.80;;;;;;;13.77;100.00;101712.56;5058149;28;20025;-60
2022/11/11 08:47:46;;;;;;;6.00;0.40;;;;;;;13.75;100.00;101726.06;5035893;28;20453;-62
2022/11/11 08:50:12;;;;;;;4.00;0.68;;;;;;;13.79;100.00;101721.22;5055925;28;20528;-62
2022/11/11 08:52:38;;;;;;;5.93;0.60;;;;;;;13.80;100.00;101722.84;5059260;28;20394;-63
2022/11/11 08:55:04;;;;;;;10.75;0.68;;;;;;;13.82;100.00;101731.50;5070392;28;20077;-62
2022/11/11 08:57:29;;;;;;;5.68;0.80;;;;;;;13.82;100.00;101732.31;5037035;28;20017;-62
2022/11/11 08:59:54;;;;;;;3.83;0.40;;;;;;;13.79;100.00;101738.03;5062546;28;20032;-63
2022/11/11 09:02:20;;;;;;;4.22;0.50;;;;;;;13.79;100.00;101745.22;5057071;28;20025;-62
2022/11/11 09:04:46;;;;;;;3.63;0.47;;;;;;;13.78;100.00;101749.69;5068822;28;20035;-63
2022/11/11 09:07:12;;;;;;;2.15;0.30;;;;;;;13.78;100.00;101752.34;5036273;28;20474;-63
2022/11/11 09:09:37;;;;;;;2.42;0.77;;;;;;;13.81;100.00;101756.50;5062604;28;20111;-64
2022/11/11 09:12:03;;;;;;;7.82;1.77;;;;;;;13.81;100.00;101753.81;5038051;28;20024;-62
2022/11/11 09:14:28;;;;;;;5.25;0.77;;;;;;;13.83;100.00;101754.47;5057321;28;20036;-63
2022/11/11 09:16:53;;;;;;;6.00;0.73;;;;;;;13.85;100.00;101753.28;5058204;28;20039;-63
2022/11/11 09:19:19;;;;;;;4.95;0.65;;;;;;;13.86;100.00;101759.44;5059855;28;20081;-61
2022/11/11 09:21:44;;;;;;;6.80;1.02;;;;;;;13.87;100.00;101751.28;5064447;28;20025;-64
2022/11/11 09:24:10;;;;;;;8.82;1.85;;;;;;;13.88;100.00;101758.25;5063267;28;20504;-60
2022/11/11 09:26:35;;;;;;;10.40;1.23;;;;;;;13.90;100.00;101755.41;5062473;28;20085;-64
2022/11/11 09:29:00;;;;;;;7.90;1.17;;;;;;;13.93;100.00;101765.72;5062857;28;20045;-63
2022/11/11 09:31:26;;;;;;;6.03;0.88;;;;;;;13.93;100.00;101763.03;5055257;28;20100;-64
2022/11/11 09:33:51;;;;;;;5.53;1.48;;;;;;;13.94;100.00;101762.06;5064403;28;20027;-62
2022/11/11 09:36:17;;;;;;;3.33;1.08;;;;;;;13.95;100.00;101758.38;5054246;28;20181;-63
2022/11/11 09:38:43;;;;;;;4.03;1.38;;;;;;;13.94;100.00;101768.22;5063783;28;20382;-63
2022/11/11 09:41:18;;;;;;;1.80;0.52;;;;;;;13.98;100.00;101771.31;5054806;28;20130;-63
2022/11/11 09:43:47;;;;;;;7.22;1.00;;;;;;;13.96;100.00;101770.69;5055002;28;20508;-62
2022/11/11 09:46:30;;;;;;;2.65;0.40;;;;;;;14.00;100.00;101779.97;5037015;28;20439;-63
2022/11/11 09:49:14;;;;;;;3.58;0.57;;;;;;;13.99;100.00;101777.47;5055790;28;20497;-62
2022/11/11 09:51:51;;;;;;;2.25;0.57;;;;;;;14.04;100.00;101772.44;5059577;28;20036;-62
2022/11/11 09:54:24;;;;;;;8.98;1.27;;;;;;;14.04;100.00;101783.91;5061144;28;20488;-64
2022/11/11 09:56:50;;;;;;;8.00;1.13;;;;;;;14.03;100.00;101782.28;5051022;28;20111;-64
2022/11/11 09:59:22;;;;;;;1.55;0.70;;;;;;;14.06;100.00;101787.25;5055344;28;20453;-62
2022/11/11 10:01:54;;;;;;;3.95;0.82;;;;;;;14.08;100.00;101779.91;5057494;28;20025;-64
2022/11/11 10:04:26;;;;;;;8.88;1.02;;;;;;;14.09;100.00;101789.53;5053124;28;20032;-63
2022/11/11 10:06:58;;;;;;;3.10;0.80;;;;;;;14.13;100.00;101793.50;5058132;28;20128;-64
2022/11/11 10:09:35;;;;;;;4.00;0.50;;;;;;;14.17;100.00;101805.47;5056653;28;20021;-64
2022/11/11 10:12:09;;;;;;;5.97;0.70;;;;;;;14.17;100.00;101802.81;5054887;28;20048;-64
2022/11/11 10:14:38;;;;;;;3.83;0.82;;;;;;;14.23;100.00;101795.91;5066597;28;20064;-62
2022/11/11 10:17:17;;;;;;;10.50;1.30;;;;;;;14.28;100.00;101800.72;5057774;28;20021;-63
2022/11/11 10:20:15;;;;;;;2.40;0.65;;;;;;;14.28;100.00;101800.72;5055080;28;20021;-64
2022/11/11 10:22:43;;;;;;;5.40;0.85;;;;;;;14.29;100.00;101805.84;5054228;28;20723;-64
2022/11/11 10:25:11;;;;;;;4.88;0.80;;;;;;;14.32;100.00;101808.13;5059017;28;20047;-60
2022/11/11 10:27:41;;;;;;;2.47;0.30;;;;;;;14.36;100.00;101813.97;5062180;28;20029;-62
2022/11/11 10:30:16;;;;;;;3.03;0.30;;;;;;;14.37;100.00;101815.59;5054566;28;20463;-61
2022/11/11 10:32:44;;;;;;;3.45;0.50;;;;;;;14.37;100.00;101811.09;5057099;28;20083;-61
2022/11/11 10:35:22;;;;;;;16.42;1.38;;;;;;;14.39;100.00;101819.75;5054323;28;20033;-62
2022/11/11 10:37:55;;;;;;;0.95;0.55;;;;;;;14.40;100.00;101818.75;5058108;28;20082;-61
2022/11/11 10:40:28;;;;;;;3.10;0.73;;;;;;;14.42;100.00;101818.53;5054619;28;20041;-62
2022/11/11 10:42:53;;;;;;;4.03;0.77;;;;;;;14.44;100.00;101813.88;5060728;28;20885;-62
2022/11/11 10:45:48;;;;;;;2.58;0.40;;;;;;;14.46;100.00;101819.84;5058794;28;20073;-61
2022/11/11 10:48:28;;;;;;;7.53;0.95;;;;;;;14.53;100.00;101811.94;5042258;28;20048;-63
2022/11/11 10:50:58;;;;;;;9.57;1.05;;;;;;;14.53;100.00;101809.28;5048630;28;20452;-64
2022/11/11 10:53:32;;;;;;;9.25;1.55;;;;;;;14.51;100.00;101806.78;5056749;28;20104;-59
2022/11/11 10:56:10;;;;;;;5.07;1.00;;;;;;;14.59;100.00;101809.38;5054296;28;20386;-60
2022/11/11 10:58:39;;;;;;;2.80;0.60;;;;;;;14.64;100.00;101806.16;5069248;28;20350;-62
2022/11/11 11:01:09;;;;;;;5.47;1.45;;;;;;;14.66;100.00;101798.78;5067284;28;20078;-60
2022/11/11 11:03:59;;;;;;;9.00;0.77;;;;;;;14.68;100.00;101801.28;5066237;28;20082;-62
2022/11/11 11:06:28;;;;;;;2.50;0.73;;;;;;;14.69;100.00;101802.91;5056386;28;20029;-61
2022/11/11 11:08:58;;;;;;;3.85;0.88;;;;;;;14.72;100.00;101802.56;5068149;28;20035;-63
2022/11/11 11:11:32;;;;;;;5.57;0.55;;;;;;;14.78;100.00;101809.81;5067093;28;20028;-61
2022/11/11 11:14:01;;;;;;;4.07;1.02;;;;;;;14.77;100.00;101816.19;5064167;28;20110;-63
2022/11/11 11:16:37;;;;;;;3.10;0.20;;;;;;;14.70;100.00;101810.75;5063520;28;20025;-61
2022/11/11 11:19:24;;;;;;;8.07;1.75;;;;;;;14.65;100.00;101815.00;5064834;28;20024;-59
2022/11/11 11:21:57;;;;;;;3.30;1.15;;;;;;;14.64;100.00;101816.84;5056383;28;20059;-63
2022/11/11 11:24:31;;;;;;;4.47;0.63;;;;;;;14.59;100.00;101820.06;5056816;28;20024;-63
2022/11/11 11:27:02;;;;;;;4.75;0.73;;;;;;;14.56;100.00;101824.91;5060702;28;20035;-62
2022/11/11 11:29:29;;;;;;;7.93;1.52;;;;;;;14.55;100.00;101818.75;5056117;28;20040;-60
2022/11/11 11:31:55;;;;;;;3.35;0.57;;;;;;;14.57;100.00;101823.94;5052360;28;20508;-61
2022/11/11 11:34:20;;;;;;;5.40;1.45;;;;;;;14.54;100.00;101822.44;5058705;28;20645;-63
2022/11/11 11:37:00;;;;;;;4.90;1.30;;;;;;;14.60;100.00;101828.88;5062414;28;20028;-62
2022/11/11 11:39:37;;;;;;;7.93;0.88;;;;;;;14.65;100.00;101821.16;5046066;28;20024;-62
2022/11/11 11:42:02;;;;;;;7.60;1.17;;;;;;;14.61;100.00;101823.38;5055906;28;20983;-60
2022/11/11 11:44:36;;;;;;;4.60;0.90;;;;;;;14.60;100.00;101828.88;5060223;28;20071;-62
2022/11/11 11:47:09;;;;;;;6.05;0.75;;;;;;;14.62;100.00;101826.88;5066266;28;20039;-63
2022/11/11 11:49:52;;;;;;;6.18;0.80;;;;;;;14.65;100.00;101828.34;5062792;28;20086;-62
2022/11/11 11:52:31;;;;;;;2.72;0.98;;;;;;;14.64;100.00;101827.50;5038047;28;20116;-65
2022/11/11 11:55:02;;;;;;;3.85;0.45;;;;;;;14.64;100.00;101826.66;5061041;28;20038;-61
2022/11/11 11:57:59;;;;;;;4.40;1.10;;;;;;;14.65;100.00;101823.81;5058444;28;20025;-63
2022/11/11 12:00:24;;;;;;;5.47;0.65;;;;;;;14.60;100.00;101819.03;5064052;28;20040;-63
2022/11/11 12:03:14;;;;;;;5.97;1.48;;;;;;;14.63;100.00;101817.84;5057439;28;20020;-64
2022/11/11 12:05:49;;;;;;;4.97;1.27;;;;;;;14.61;100.00;101814.50;5061299;28;20040;-62
2022/11/11 12:08:53;;;;;;;5.50;1.17;;;;;;;14.63;100.00;101809.81;5062025;28;20039;-60
2022/11/11 12:11:40;;;;;;;4.60;1.23;;;;;;;14.60;100.00;101815.53;5059835;28;20068;-63
2022/11/11 12:14:27;;;;;;;1.63;0.68;;;;;;;14.57;100.00;101808.72;5058676;28;20068;-63
2022/11/11 12:17:01;;;;;;;12.98;1.80;;;;;;;14.54;100.00;101816.28;5061179;28;20071;-63
2022/11/11 12:19:56;;;;;;;3.05;0.90;;;;;;;14.55;100.00;101823.28;5057897;28;20045;-64
2022/11/11 12:23:00;;;;;;;5.00;0.98;;;;;;;14.63;100.00;101817.00;5066744;28;20031;-63
2022/11/11 12:25:50;;;;;;;2.65;0.55;;;;;;;14.65;100.00;101818.47;5015391;28;20040;-63
2022/11/11 12:29:00;;;;;;;3.03;1.25;;;;;;;14.66;100.00;101814.78;5061836;28;20098;-65
2022/11/11 12:32:03;;;;;;;5.47;1.05;;;;;;;14.74;100.00;101808.53;4962595;28;20131;-62
2022/11/11 12:34:55;;;;;;;2.92;1.08;;;;;;;14.81;100.00;101802.25;5042238;28;20070;-64
2022/11/11 12:37:28;;;;;;;5.28;1.45;;;;;;;14.79;100.00;101806.97;5061801;28;20059;-64
2022/11/11 12:40:05;;;;;;;6.28;1.05;;;;;;;14.81;100.00;101806.78;5056241;28;20398;-65
2022/11/11 12:42:58;;;;;;;7.07;0.95;;;;;;;14.86;100.00;101817.72;5048942;28;20450;-64
2022/11/11 12:45:30;;;;;;;5.88;0.93;;;;;;;14.89;100.00;101820.00;5058248;28;20487;-63
2022/11/11 12:48:34;;;;;;;5.72;1.42;;;;;;;14.87;100.00;101810.53;5066624;28;20124;-64